createdAt,value
2023-02-04T00:01:18.805Z,17.20
2023-02-04T00:03:40.211Z,22.90
2023-02-04T00:06:01.739Z,18.40
2023-02-04T00:08:23.281Z,20.17
2023-02-04T00:10:44.713Z,23.97
2023-02-04T00:13:06.292Z,21.60
2023-02-04T00:15:27.824Z,20.53
2023-02-04T00:17:49.235Z,20.10
2023-02-04T00:20:11.155Z,18.90
2023-02-04T00:22:32.605Z,22.47
2023-02-04T00:24:54.070Z,22.63
2023-02-04T00:27:16.427Z,16.90
2023-02-04T00:29:37.886Z,19.57
2023-02-04T00:31:59.532Z,20.23
2023-02-04T00:34:21.128Z,20.40
2023-02-04T00:36:42.583Z,14.53
2023-02-04T00:39:04.093Z,14.70
2023-02-04T00:41:25.517Z,18.10
2023-02-04T00:43:46.919Z,20.10
2023-02-04T00:46:08.423Z,18.87
2023-02-04T00:48:29.967Z,23.73
2023-02-04T00:50:53.102Z,18.10
2023-02-04T00:53:14.722Z,19.30
2023-02-04T00:55:36.164Z,16.17
2023-02-04T00:57:57.626Z,17.03
2023-02-04T01:00:19.426Z,16.10
2023-02-04T01:02:40.945Z,15.87
2023-02-04T01:05:02.547Z,19.53
2023-02-04T01:07:23.972Z,27.47
2023-02-04T01:09:45.442Z,28.40
2023-02-04T01:12:07.028Z,23.13
2023-02-04T01:14:28.486Z,24.90
2023-02-04T01:16:50.095Z,20.53
2023-02-04T01:19:11.880Z,29.33
2023-02-04T01:21:33.422Z,16.70
2023-02-04T01:23:54.948Z,22.17
2023-02-04T01:26:20.090Z,23.73
2023-02-04T01:28:41.557Z,23.50
2023-02-04T01:31:03.080Z,21.43
2023-02-04T01:33:24.598Z,23.33
2023-02-04T01:35:46.053Z,24.93
2023-02-04T01:38:07.636Z,26.07
2023-02-04T01:40:29.834Z,24.03
2023-02-04T01:42:52.340Z,29.80
2023-02-04T01:45:13.877Z,20.33
2023-02-04T01:47:35.497Z,25.53
2023-02-04T01:49:57.173Z,26.63
2023-02-04T01:52:18.875Z,27.33
2023-02-04T01:54:40.417Z,26.10
2023-02-04T01:57:02.442Z,29.47
2023-02-04T01:59:24.305Z,19.67
2023-02-04T02:01:48.484Z,25.90
2023-02-04T02:04:12.078Z,27.60
2023-02-04T02:06:34.760Z,23.73
2023-02-04T02:08:58.305Z,25.27
2023-02-04T02:11:20.110Z,29.87
2023-02-04T02:13:41.559Z,26.87
2023-02-04T02:16:03.114Z,17.60
2023-02-04T02:18:25.277Z,20.77
2023-02-04T02:20:46.836Z,22.73
2023-02-04T02:23:39.253Z,20.00
2023-02-04T02:26:00.749Z,17.40
2023-02-04T02:28:23.860Z,18.13
2023-02-04T02:30:46.109Z,19.47
2023-02-04T02:33:08.055Z,19.97
2023-02-04T02:35:29.644Z,19.03
2023-02-04T02:37:51.480Z,14.70
2023-02-04T02:40:13.993Z,16.67
2023-02-04T02:42:36.184Z,19.73
2023-02-04T02:44:58.383Z,18.77
2023-02-04T02:47:22.638Z,15.73
2023-02-04T02:49:44.528Z,17.87
2023-02-04T02:52:05.974Z,17.70
2023-02-04T02:54:30.913Z,19.20
2023-02-04T02:56:53.275Z,17.77
2023-02-04T02:59:16.344Z,22.80
2023-02-04T03:01:37.858Z,23.90
2023-02-04T03:03:59.386Z,23.47
2023-02-04T03:06:26.335Z,27.97
2023-02-04T03:08:50.571Z,21.50
2023-02-04T03:11:12.090Z,23.67
2023-02-04T03:13:37.097Z,20.67
2023-02-04T03:15:58.763Z,20.23
2023-02-04T03:18:21.192Z,14.23
2023-02-04T03:20:43.006Z,24.53
2023-02-04T03:23:04.466Z,17.40
2023-02-04T03:25:28.234Z,21.63
2023-02-04T03:27:49.807Z,23.20
2023-02-04T03:30:11.567Z,22.23
2023-02-04T03:32:33.070Z,15.23
2023-02-04T03:34:54.469Z,14.20
2023-02-04T03:37:16.152Z,18.83
2023-02-04T03:39:37.633Z,16.47
2023-02-04T03:41:59.454Z,22.13
2023-02-04T03:44:21.827Z,18.03
2023-02-04T03:46:43.308Z,24.30
2023-02-04T03:49:04.740Z,21.23
2023-02-04T03:51:26.415Z,22.17
2023-02-04T03:53:47.823Z,26.63
2023-02-04T03:56:10.464Z,21.67
2023-02-04T03:58:31.909Z,12.90
2023-02-04T04:00:53.505Z,18.63
2023-02-04T04:03:15.014Z,24.80
2023-02-04T04:05:36.793Z,20.07
2023-02-04T04:07:59.164Z,19.23
2023-02-04T04:10:20.622Z,24.50
2023-02-04T04:12:42.280Z,22.80
2023-02-04T04:15:04.244Z,16.80
2023-02-04T04:17:25.773Z,20.47
2023-02-04T04:19:47.192Z,15.50
2023-02-04T04:22:08.633Z,25.43
2023-02-04T04:24:30.057Z,20.30
2023-02-04T04:26:51.522Z,17.23
2023-02-04T04:29:12.963Z,17.83
2023-02-04T04:31:34.515Z,13.70
2023-02-04T04:33:56.065Z,20.37
2023-02-04T04:36:17.513Z,17.87
2023-02-04T04:38:39.160Z,16.67
2023-02-04T04:41:00.780Z,16.43
2023-02-04T04:43:22.318Z,18.17
2023-02-04T04:45:43.739Z,15.63
2023-02-04T04:48:05.414Z,20.77
2023-02-04T04:50:26.982Z,17.27
2023-02-04T04:52:48.451Z,15.57
2023-02-04T04:55:10.219Z,16.10
2023-02-04T04:57:31.893Z,20.93
2023-02-04T04:59:53.413Z,18.67
2023-02-04T05:02:14.861Z,17.20
2023-02-04T05:04:36.432Z,18.57
2023-02-04T05:06:57.889Z,12.20
2023-02-04T05:09:19.397Z,17.37
2023-02-04T05:11:40.793Z,21.63
2023-02-04T05:14:02.305Z,23.47
2023-02-04T05:16:23.869Z,12.70
2023-02-04T05:18:45.655Z,13.73
2023-02-04T05:21:07.611Z,13.33
2023-02-04T05:23:29.108Z,7.33
2023-02-04T05:25:50.544Z,6.33
2023-02-04T05:28:12.087Z,6.03
2023-02-04T05:30:33.962Z,12.23
2023-02-04T05:32:55.681Z,7.37
2023-02-04T05:35:17.286Z,5.07
2023-02-04T05:37:38.836Z,7.67
2023-02-04T05:40:00.295Z,4.30
2023-02-04T05:42:21.853Z,4.63
2023-02-04T05:44:43.327Z,3.43
2023-02-04T05:47:04.801Z,4.60
2023-02-04T05:49:26.276Z,4.23
2023-02-04T05:51:47.707Z,1.57
2023-02-04T05:54:09.155Z,2.07
2023-02-04T05:56:30.600Z,1.83
2023-02-04T05:58:52.075Z,1.60
2023-02-04T06:01:13.601Z,6.80
2023-02-04T06:03:35.213Z,5.13
2023-02-04T06:05:57.107Z,2.57
2023-02-04T06:08:18.644Z,1.87
2023-02-04T06:10:40.132Z,2.10
2023-02-04T06:13:01.601Z,1.47
2023-02-04T06:15:23.142Z,1.60
2023-02-04T06:17:44.597Z,2.20
2023-02-04T06:20:07.525Z,3.10
2023-02-04T06:22:29.106Z,1.20
2023-02-04T06:24:50.536Z,3.90
2023-02-04T06:27:11.968Z,2.07
2023-02-04T06:29:33.439Z,2.63
2023-02-04T06:31:54.941Z,1.70
2023-02-04T06:34:16.518Z,3.07
2023-02-04T06:36:37.981Z,3.57
2023-02-04T06:38:59.688Z,3.27
2023-02-04T06:41:21.130Z,2.70
2023-02-04T06:43:42.584Z,3.43
2023-02-04T06:46:04.234Z,5.40
2023-02-04T06:48:25.786Z,4.63
2023-02-04T06:50:47.538Z,3.07
2023-02-04T06:53:09.083Z,6.47
2023-02-04T06:55:30.579Z,4.70
2023-02-04T06:57:52.013Z,2.50
2023-02-04T07:00:13.952Z,3.33
2023-02-04T07:02:36.692Z,1.80
2023-02-04T07:05:00.439Z,3.67
2023-02-04T07:07:21.891Z,5.03
2023-02-04T07:09:43.372Z,7.00
2023-02-04T07:12:05.303Z,4.70
2023-02-04T07:14:26.763Z,3.27
2023-02-04T07:16:48.217Z,3.27
2023-02-04T07:19:09.674Z,1.90
2023-02-04T07:21:31.208Z,2.53
2023-02-04T07:23:52.754Z,2.50
2023-02-04T07:26:14.264Z,2.67
2023-02-04T07:28:36.957Z,2.23
2023-02-04T07:30:58.526Z,2.30
2023-02-04T07:33:19.976Z,3.20
2023-02-04T07:35:41.507Z,2.63
2023-02-04T07:38:02.936Z,4.60
2023-02-04T07:40:24.592Z,3.57
2023-02-04T07:42:45.999Z,5.97
2023-02-04T07:45:08.628Z,6.73
2023-02-04T07:47:30.064Z,4.77
2023-02-04T07:49:51.521Z,5.30
2023-02-04T07:52:13.058Z,7.43
2023-02-04T07:54:34.561Z,6.53
2023-02-04T07:56:56.011Z,3.67
2023-02-04T07:59:17.488Z,2.70
2023-02-04T08:01:39.073Z,3.63
2023-02-04T08:04:00.586Z,2.40
2023-02-04T08:06:22.000Z,3.00
2023-02-04T08:08:43.423Z,3.10
2023-02-04T08:11:05.036Z,3.00
2023-02-04T08:13:26.543Z,1.77
2023-02-04T08:15:47.983Z,2.97
2023-02-04T08:18:09.448Z,2.93
2023-02-04T08:20:31.653Z,3.10
2023-02-04T08:22:53.233Z,2.53
2023-02-04T08:25:14.839Z,6.23
2023-02-04T08:27:36.265Z,1.93
2023-02-04T08:29:57.783Z,2.80
2023-02-04T08:32:19.199Z,3.30
2023-02-04T08:34:41.097Z,2.87
2023-02-04T08:37:02.968Z,5.13
2023-02-04T08:39:24.462Z,2.90
2023-02-04T08:41:45.980Z,12.23
2023-02-04T08:44:07.507Z,3.63
2023-02-04T08:46:29.392Z,3.93
2023-02-04T08:48:51.273Z,4.20
2023-02-04T08:51:12.755Z,4.40
2023-02-04T08:53:34.291Z,4.60
2023-02-04T08:55:55.784Z,4.60
2023-02-04T08:58:17.203Z,3.90
2023-02-04T09:00:38.737Z,5.03
2023-02-04T09:03:00.239Z,4.40
2023-02-04T09:05:21.809Z,6.93
2023-02-04T09:07:43.287Z,3.93
2023-02-04T09:10:04.980Z,10.57
2023-02-04T09:12:26.451Z,4.37
2023-02-04T09:14:48.233Z,6.70
2023-02-04T09:17:09.658Z,4.93
2023-02-04T09:19:31.117Z,9.17
2023-02-04T09:21:53.537Z,23.57
2023-02-04T09:24:14.979Z,15.33
2023-02-04T09:26:36.428Z,8.63
2023-02-04T09:28:57.854Z,18.67
2023-02-04T09:31:19.460Z,7.33
2023-02-04T09:33:41.343Z,7.90
2023-02-04T09:36:03.186Z,7.73
2023-02-04T09:38:24.891Z,11.67
2023-02-04T09:40:49.982Z,9.67
2023-02-04T09:43:20.141Z,10.17
2023-02-04T09:45:41.715Z,8.43
2023-02-04T09:48:05.299Z,6.03
2023-02-04T09:50:28.749Z,3.80
2023-02-04T09:52:52.640Z,3.40
2023-02-04T09:55:16.148Z,1.90
2023-02-04T09:57:37.589Z,2.30
2023-02-04T09:59:59.080Z,3.87
2023-02-04T10:02:26.635Z,3.73
2023-02-04T10:04:48.783Z,2.47
2023-02-04T10:07:13.061Z,2.27
2023-02-04T10:09:34.543Z,1.50
2023-02-04T10:11:56.060Z,2.30
2023-02-04T10:14:23.592Z,4.07
2023-02-04T10:16:54.334Z,2.73
2023-02-04T10:19:16.312Z,3.53
2023-02-04T10:21:37.856Z,5.87
2023-02-04T10:24:02.655Z,5.63
2023-02-04T10:26:28.388Z,3.33
2023-02-04T10:28:49.850Z,2.47
2023-02-04T10:31:31.800Z,2.30
2023-02-04T10:34:22.049Z,1.90
2023-02-04T10:36:46.024Z,1.93
2023-02-04T10:39:16.553Z,1.80
2023-02-04T10:41:40.095Z,2.60
2023-02-04T10:44:15.565Z,7.17
2023-02-04T10:46:37.112Z,3.53
2023-02-04T10:48:58.605Z,5.40
2023-02-04T10:51:20.048Z,4.57
2023-02-04T10:54:00.155Z,3.33
2023-02-04T10:56:21.923Z,3.10
2023-02-04T10:58:44.156Z,2.50
2023-02-04T11:01:10.948Z,8.40
2023-02-04T11:03:32.478Z,7.77
2023-02-04T11:05:57.432Z,4.03
2023-02-04T11:08:29.565Z,4.23
2023-02-04T11:11:00.846Z,3.10
2023-02-04T11:13:38.727Z,3.00
2023-02-04T11:16:18.446Z,3.97
2023-02-04T11:19:04.209Z,3.83
2023-02-04T11:21:25.692Z,2.07
2023-02-04T11:23:47.724Z,3.13
2023-02-04T11:26:17.257Z,2.30
2023-02-04T11:28:58.932Z,2.63
2023-02-04T11:31:20.387Z,2.33
2023-02-04T11:33:42.639Z,3.03
2023-02-04T11:36:07.022Z,2.17
2023-02-04T11:38:31.821Z,1.60
2023-02-04T11:40:57.771Z,3.70
2023-02-04T11:43:21.092Z,1.70
2023-02-04T11:45:43.900Z,5.13
2023-02-04T11:48:21.592Z,5.20
2023-02-04T11:50:43.338Z,4.97
2023-02-04T11:53:05.730Z,5.20
2023-02-04T11:55:28.275Z,7.13
2023-02-04T11:57:55.223Z,5.40
2023-02-04T12:00:29.213Z,8.40
2023-02-04T12:03:00.239Z,8.80
2023-02-04T12:05:21.896Z,7.03
2023-02-04T12:07:44.254Z,8.13
2023-02-04T12:10:33.713Z,3.30
2023-02-04T12:12:59.713Z,3.00
2023-02-04T12:15:33.542Z,5.53
2023-02-04T12:18:07.560Z,8.23
2023-02-04T12:20:29.255Z,3.87
2023-02-04T12:22:50.683Z,2.40
2023-02-04T12:25:16.774Z,2.23
2023-02-04T12:27:38.230Z,2.30
2023-02-04T12:29:59.648Z,3.57
2023-02-04T12:32:21.338Z,4.17
2023-02-04T12:34:42.766Z,1.37
2023-02-04T12:37:04.196Z,2.20
2023-02-04T12:39:25.708Z,1.97
2023-02-04T12:41:47.165Z,7.87
2023-02-04T12:44:08.678Z,1.37
2023-02-04T12:46:30.464Z,1.93
2023-02-04T12:48:52.007Z,1.70
2023-02-04T12:51:13.456Z,2.83
2023-02-04T12:53:34.884Z,2.00
2023-02-04T12:55:57.810Z,1.20
2023-02-04T12:58:19.364Z,2.80
2023-02-04T13:00:42.188Z,1.80
2023-02-04T13:03:03.920Z,1.20
2023-02-04T13:05:26.203Z,3.60
2023-02-04T13:07:47.664Z,2.47
2023-02-04T13:10:10.229Z,0.87
2023-02-04T13:12:31.698Z,2.10
2023-02-04T13:14:53.126Z,1.20
2023-02-04T13:17:14.639Z,1.63
2023-02-04T13:19:36.417Z,1.00
2023-02-04T13:21:58.749Z,1.93
2023-02-04T13:24:20.181Z,2.10
2023-02-04T13:26:41.628Z,2.97
2023-02-04T13:29:03.464Z,7.33
2023-02-04T13:31:24.946Z,2.73
2023-02-04T13:33:46.489Z,13.23
2023-02-04T13:36:08.025Z,31.13
2023-02-04T13:38:29.540Z,4.57
2023-02-04T13:40:51.005Z,5.13
2023-02-04T13:43:12.541Z,2.37
2023-02-04T13:45:34.513Z,1.30
2023-02-04T13:47:56.156Z,1.20
2023-02-04T13:50:17.850Z,2.40
2023-02-04T13:52:39.353Z,2.23
2023-02-04T13:55:01.235Z,2.47
2023-02-04T13:57:23.093Z,1.70
2023-02-04T13:59:44.597Z,3.80
2023-02-04T14:02:06.256Z,8.43
2023-02-04T14:04:27.828Z,9.03
2023-02-04T14:06:49.325Z,2.57
2023-02-04T14:09:14.969Z,5.43
2023-02-04T14:11:36.741Z,2.30
2023-02-04T14:13:58.195Z,3.27
2023-02-04T14:16:19.928Z,4.50
2023-02-04T14:18:41.496Z,3.60
2023-02-04T14:21:03.089Z,3.83
2023-02-04T14:23:24.616Z,2.40
2023-02-04T14:25:46.039Z,2.23
2023-02-04T14:28:07.663Z,1.17
2023-02-04T14:30:30.255Z,1.20
2023-02-04T14:32:52.430Z,1.70
2023-02-04T14:35:14.531Z,1.27
2023-02-04T14:37:35.968Z,6.53
2023-02-04T14:39:57.441Z,4.37
2023-02-04T14:42:18.874Z,3.90
2023-02-04T14:44:40.320Z,2.90
2023-02-04T14:47:01.766Z,2.93
2023-02-04T14:49:23.196Z,5.47
2023-02-04T14:51:44.691Z,4.33
2023-02-04T14:54:06.169Z,2.77
2023-02-04T14:56:27.613Z,3.27
2023-02-04T14:58:49.051Z,3.40
2023-02-04T15:01:10.716Z,2.00
2023-02-04T15:03:32.183Z,2.93
2023-02-04T15:05:53.575Z,2.27
2023-02-04T15:08:15.054Z,2.17
2023-02-04T15:10:37.044Z,3.30
2023-02-04T15:12:59.195Z,4.53
2023-02-04T15:15:21.065Z,12.73
2023-02-04T15:17:42.729Z,4.10
2023-02-04T15:20:05.104Z,6.80
2023-02-04T15:22:26.675Z,6.10
2023-02-04T15:24:48.641Z,5.83
2023-02-04T15:27:10.093Z,7.40
2023-02-04T15:29:31.960Z,8.53
2023-02-04T15:31:53.557Z,5.70
2023-02-04T15:34:15.138Z,11.27
2023-02-04T15:36:36.566Z,10.97
2023-02-04T15:38:58.018Z,16.27
2023-02-04T15:41:19.497Z,9.63
2023-02-04T15:43:40.999Z,6.00
2023-02-04T15:46:02.661Z,3.43
2023-02-04T15:48:24.200Z,2.67
2023-02-04T15:50:45.685Z,2.50
2023-02-04T15:53:07.134Z,3.00
2023-02-04T15:55:29.100Z,4.10
2023-02-04T15:57:50.587Z,3.10
2023-02-04T16:00:12.598Z,2.47
2023-02-04T16:02:34.126Z,3.13
2023-02-04T16:04:55.585Z,8.70
2023-02-04T16:07:17.271Z,14.53
2023-02-04T16:09:38.936Z,14.80
2023-02-04T16:12:01.102Z,7.13
2023-02-04T16:14:22.563Z,3.63
2023-02-04T16:16:44.241Z,2.40
2023-02-04T16:19:05.679Z,2.23
2023-02-04T16:21:27.155Z,7.27
2023-02-04T16:23:48.684Z,8.20
2023-02-04T16:26:10.209Z,9.00
2023-02-04T16:28:31.694Z,10.70
2023-02-04T16:30:54.334Z,9.23
2023-02-04T16:33:15.824Z,5.07
2023-02-04T16:36:03.696Z,2.97
2023-02-04T16:38:26.100Z,4.20
2023-02-04T16:40:47.564Z,3.23
2023-02-04T16:43:09.035Z,6.03
2023-02-04T16:45:30.707Z,3.63
2023-02-04T16:47:52.642Z,11.37
2023-02-04T16:50:14.129Z,11.40
2023-02-04T16:52:35.596Z,22.73
2023-02-04T16:54:57.974Z,20.70
2023-02-04T16:57:19.404Z,17.10
2023-02-04T16:59:40.895Z,8.50
2023-02-04T17:02:02.423Z,6.93
2023-02-04T17:04:25.234Z,8.87
2023-02-04T17:06:46.676Z,21.80
2023-02-04T17:09:09.289Z,25.77
2023-02-04T17:11:31.571Z,25.07
2023-02-04T17:13:53.164Z,36.37
2023-02-04T17:16:14.681Z,34.60
2023-02-04T17:18:36.215Z,22.87
2023-02-04T17:20:59.135Z,20.27
2023-02-04T17:23:20.599Z,22.70
2023-02-04T17:25:42.038Z,20.03
2023-02-04T17:28:03.554Z,18.93
2023-02-04T17:30:25.093Z,27.70
2023-02-04T17:32:46.610Z,37.90
2023-02-04T17:35:08.253Z,46.17
2023-02-04T17:37:29.661Z,42.27
2023-02-04T17:39:51.128Z,42.70
2023-02-04T17:42:12.561Z,51.27
2023-02-04T17:44:34.021Z,45.47
2023-02-04T17:46:55.905Z,49.13
2023-02-04T17:49:17.415Z,41.23
2023-02-04T17:51:38.860Z,36.90
2023-02-04T17:54:00.474Z,32.37
2023-02-04T17:56:22.048Z,28.80
2023-02-04T17:58:43.809Z,24.50
2023-02-04T18:01:14.796Z,21.03
2023-02-04T18:03:36.620Z,17.70
2023-02-04T18:05:58.955Z,18.37
2023-02-04T18:08:31.758Z,10.80
2023-02-04T18:10:55.291Z,13.13
2023-02-04T18:13:19.187Z,10.93
2023-02-04T18:15:41.486Z,8.43
2023-02-04T18:18:26.926Z,37.10
2023-02-04T18:20:56.300Z,72.67
2023-02-04T18:23:19.343Z,59.27
2023-02-04T18:25:41.018Z,39.83
2023-02-04T18:28:13.556Z,19.37
2023-02-04T18:30:35.460Z,13.93
2023-02-04T18:32:57.236Z,12.90
2023-02-04T18:35:37.142Z,6.77
2023-02-04T18:37:58.612Z,10.63
2023-02-04T18:40:30.481Z,11.53
2023-02-04T18:43:02.903Z,13.30
2023-02-04T18:45:30.326Z,12.87
2023-02-04T18:48:25.203Z,17.63
2023-02-04T18:50:48.410Z,19.27
2023-02-04T18:53:16.312Z,8.13
2023-02-04T18:55:40.184Z,11.73
2023-02-04T18:58:17.139Z,9.77
2023-02-04T19:00:38.887Z,10.87
2023-02-04T19:03:16.336Z,33.37
2023-02-04T19:05:50.481Z,18.67
2023-02-04T19:08:27.228Z,15.77
2023-02-04T19:10:50.106Z,15.07
2023-02-04T19:13:17.634Z,19.57
2023-02-04T19:15:39.696Z,13.13
2023-02-04T19:18:16.054Z,10.63
2023-02-04T19:20:38.681Z,9.57
2023-02-04T19:23:00.104Z,10.47
2023-02-04T19:25:24.509Z,10.27
2023-02-04T19:27:50.463Z,8.87
2023-02-04T19:30:30.407Z,10.07
2023-02-04T19:32:55.825Z,8.10
2023-02-04T19:35:20.294Z,7.60
2023-02-04T19:37:41.765Z,6.10
2023-02-04T19:40:22.570Z,8.10
2023-02-04T19:42:44.334Z,6.37
2023-02-04T19:45:23.800Z,9.33
2023-02-04T19:47:45.683Z,7.30
2023-02-04T19:50:13.469Z,6.73
2023-02-04T19:52:37.596Z,6.93
2023-02-04T19:55:27.442Z,9.33
2023-02-04T19:57:54.889Z,5.47
2023-02-04T20:00:34.830Z,5.93
2023-02-04T20:02:57.568Z,7.53
2023-02-04T20:05:20.570Z,5.17
2023-02-04T20:07:41.993Z,6.67
2023-02-04T20:10:06.149Z,6.60
2023-02-04T20:12:29.821Z,6.13
2023-02-04T20:14:56.912Z,7.87
2023-02-04T20:17:33.654Z,6.10
2023-02-04T20:19:59.377Z,7.80
2023-02-04T20:22:21.756Z,8.43
2023-02-04T20:24:45.966Z,6.40
2023-02-04T20:27:16.535Z,6.90
2023-02-04T20:29:38.066Z,6.77
2023-02-04T20:31:59.483Z,8.67
2023-02-04T20:34:23.152Z,9.30
2023-02-04T20:36:46.006Z,12.23
2023-02-04T20:39:29.053Z,13.47
2023-02-04T20:41:50.503Z,15.90
2023-02-04T20:44:16.673Z,19.33
2023-02-04T20:46:38.153Z,19.47
2023-02-04T20:48:59.619Z,13.50
2023-02-04T20:51:23.794Z,10.63
2023-02-04T20:53:49.434Z,12.17
2023-02-04T20:56:28.588Z,11.30
2023-02-04T20:58:51.153Z,12.63
2023-02-04T21:01:35.175Z,9.33
2023-02-04T21:03:58.006Z,9.70
2023-02-04T21:06:31.565Z,10.37
2023-02-04T21:08:54.694Z,9.67
2023-02-04T21:11:16.357Z,10.90
2023-02-04T21:13:38.748Z,9.97
2023-02-04T21:16:00.630Z,11.07
2023-02-04T21:18:22.374Z,11.20
2023-02-04T21:20:44.531Z,10.27
2023-02-04T21:23:06.355Z,9.40
2023-02-04T21:25:27.847Z,8.50
2023-02-04T21:27:49.305Z,15.47
2023-02-04T21:30:11.427Z,14.97
2023-02-04T21:32:33.102Z,13.10
2023-02-04T21:34:54.537Z,9.83
2023-02-04T21:37:16.008Z,8.83
2023-02-04T21:39:37.491Z,9.73
2023-02-04T21:42:19.214Z,11.17
2023-02-04T21:44:40.721Z,8.83
2023-02-04T21:47:02.288Z,7.70
2023-02-04T21:49:23.721Z,8.77
2023-02-04T21:51:45.167Z,8.10
2023-02-04T21:54:06.757Z,7.90
2023-02-04T21:56:28.331Z,8.03
2023-02-04T21:58:49.770Z,9.10
2023-02-04T22:01:11.291Z,7.80
2023-02-04T22:03:32.907Z,8.27
2023-02-04T22:05:54.559Z,10.07
2023-02-04T22:08:16.392Z,8.93
2023-02-04T22:10:38.249Z,10.43
2023-02-04T22:13:18.206Z,8.83
2023-02-04T22:15:39.666Z,10.57
2023-02-04T22:18:01.152Z,13.33
2023-02-04T22:20:24.758Z,23.73
2023-02-04T22:22:47.308Z,22.30
2023-02-04T22:25:09.079Z,17.37
2023-02-04T22:27:30.523Z,11.17
2023-02-04T22:29:52.015Z,10.33
2023-02-04T22:32:13.572Z,9.93
2023-02-04T22:34:35.019Z,11.40
2023-02-04T22:36:56.469Z,13.63
2023-02-04T22:39:17.898Z,26.63
2023-02-04T22:41:39.404Z,21.40
2023-02-04T22:44:01.415Z,17.43
2023-02-04T22:46:23.001Z,16.97
2023-02-04T22:48:44.539Z,17.20
2023-02-04T22:51:06.018Z,19.97
2023-02-04T22:53:27.446Z,14.77
2023-02-04T22:55:48.878Z,14.53
2023-02-04T22:58:10.319Z,14.33
2023-02-04T23:00:32.248Z,7.50
2023-02-04T23:02:53.758Z,8.77
2023-02-04T23:05:15.167Z,8.47
2023-02-04T23:07:36.964Z,8.83
2023-02-04T23:09:58.424Z,8.97
2023-02-04T23:12:19.946Z,9.63
2023-02-04T23:14:45.947Z,9.27
2023-02-04T23:17:07.757Z,7.00
2023-02-04T23:19:29.187Z,10.70
2023-02-04T23:21:50.651Z,10.43
2023-02-04T23:24:12.103Z,8.83
2023-02-04T23:26:33.648Z,7.83
2023-02-04T23:28:55.690Z,7.23
2023-02-04T23:31:17.454Z,9.77
2023-02-04T23:33:39.086Z,8.07
2023-02-04T23:36:00.699Z,7.57
2023-02-04T23:38:22.226Z,6.90
2023-02-04T23:40:43.678Z,6.10
2023-02-04T23:43:05.170Z,5.50
2023-02-04T23:45:26.572Z,6.13
2023-02-04T23:47:48.012Z,9.13
2023-02-04T23:50:09.905Z,10.30
2023-02-04T23:52:31.425Z,10.10
2023-02-04T23:54:52.892Z,8.13
2023-02-04T23:57:14.353Z,7.93
2023-02-04T23:59:36.281Z,8.70
